sensor_id;sensor_type;location;lat;lon;timestamp;pressure;altitude;pressure_sealevel;temperature;humidity
11621;BME280;5866;49.094;11.900;2023-05-14T00:00:31;96273.84;;;11.64;100.00
11621;BME280;5866;49.094;11.900;2023-05-14T00:02:58;96266.34;;;11.44;100.00
11621;BME280;5866;49.094;11.900;2023-05-14T00:05:26;96273.53;;;11.35;100.00
11621;BME280;5866;49.094;11.900;2023-05-14T00:07:53;96267.84;;;11.46;100.00
11621;BME280;5866;49.094;11.900;2023-05-14T00:10:21;96269.06;;;11.68;100.00
11621;BME280;5866;49.094;11.900;2023-05-14T00:12:50;96262.22;;;11.65;100.00
11621;BME280;5866;49.094;11.900;2023-05-14T00:15:18;96261.88;;;11.84;100.00
11621;BME280;5866;49.094;11.900;2023-05-14T00:17:47;96257.81;;;12.21;100.00
11621;BME280;5866;49.094;11.900;2023-05-14T00:20:14;96259.25;;;12.39;100.00
11621;BME280;5866;49.094;11.900;2023-05-14T00:22:42;96254.31;;;12.67;100.00
11621;BME280;5866;49.094;11.900;2023-05-14T00:25:09;96253.56;;;12.81;100.00
11621;BME280;5866;49.094;11.900;2023-05-14T00:27:37;96246.75;;;13.01;100.00
11621;BME280;5866;49.094;11.900;2023-05-14T00:30:05;96244.63;;;13.05;100.00
11621;BME280;5866;49.094;11.900;2023-05-14T00:32:33;96243.66;;;12.67;100.00
11621;BME280;5866;49.094;11.900;2023-05-14T00:35:02;96248.78;;;12.99;100.00
11621;BME280;5866;49.094;11.900;2023-05-14T00:37:30;96244.03;;;13.40;100.00
11621;BME280;5866;49.094;11.900;2023-05-14T00:39:57;96246.16;;;12.91;100.00
11621;BME280;5866;49.094;11.900;2023-05-14T00:42:24;96240.34;;;12.65;100.00
11621;BME280;5866;49.094;11.900;2023-05-14T00:44:53;96239.88;;;12.84;100.00
11621;BME280;5866;49.094;11.900;2023-05-14T00:47:21;96231.22;;;12.59;100.00
11621;BME280;5866;49.094;11.900;2023-05-14T00:49:48;96234.53;;;12.61;100.00
11621;BME280;5866;49.094;11.900;2023-05-14T00:52:17;96230.50;;;12.65;100.00
11621;BME280;5866;49.094;11.900;2023-05-14T00:54:45;96233.50;;;12.93;100.00
11621;BME280;5866;49.094;11.900;2023-05-14T00:57:13;96232.13;;;13.05;100.00
11621;BME280;5866;49.094;11.900;2023-05-14T00:59:41;96231.88;;;12.92;100.00
11621;BME280;5866;49.094;11.900;2023-05-14T01:02:09;96228.28;;;12.77;100.00
11621;BME280;5866;49.094;11.900;2023-05-14T01:04:37;96238.06;;;12.54;100.00
11621;BME280;5866;49.094;11.900;2023-05-14T01:07:11;96235.75;;;12.82;100.00
11621;BME280;5866;49.094;11.900;2023-05-14T01:09:49;96233.22;;;12.19;100.00
11621;BME280;5866;49.094;11.900;2023-05-14T01:12:26;96233.78;;;12.06;100.00
11621;BME280;5866;49.094;11.900;2023-05-14T01:15:00;96240.78;;;11.91;100.00
11621;BME280;5866;49.094;11.900;2023-05-14T01:17:30;96235.28;;;11.92;100.00
11621;BME280;5866;49.094;11.900;2023-05-14T01:19:59;96232.56;;;12.09;100.00
11621;BME280;5866;49.094;11.900;2023-05-14T01:22:28;96241.88;;;12.21;100.00
11621;BME280;5866;49.094;11.900;2023-05-14T01:24:56;96231.47;;;12.34;100.00
11621;BME280;5866;49.094;11.900;2023-05-14T01:27:25;96225.94;;;12.05;100.00
11621;BME280;5866;49.094;11.900;2023-05-14T01:30:02;96229.00;;;11.93;100.00
11621;BME280;5866;49.094;11.900;2023-05-14T01:32:34;96220.50;;;11.98;100.00
11621;BME280;5866;49.094;11.900;2023-05-14T01:35:03;96230.31;;;11.89;100.00
11621;BME280;5866;49.094;11.900;2023-05-14T01:37:33;96230.72;;;12.17;100.00
11621;BME280;5866;49.094;11.900;2023-05-14T01:40:03;96216.97;;;12.06;100.00
11621;BME280;5866;49.094;11.900;2023-05-14T01:42:31;96230.69;;;11.78;100.00
11621;BME280;5866;49.094;11.900;2023-05-14T01:44:59;96216.19;;;11.89;100.00
11621;BME280;5866;49.094;11.900;2023-05-14T01:47:27;96211.50;;;11.99;100.00
11621;BME280;5866;49.094;11.900;2023-05-14T01:49:54;96208.06;;;11.58;100.00
11621;BME280;5866;49.094;11.900;2023-05-14T01:52:22;96215.75;;;11.53;100.00
11621;BME280;5866;49.094;11.900;2023-05-14T01:54:51;96217.25;;;10.99;100.00
11621;BME280;5866;49.094;11.900;2023-05-14T01:57:19;96220.41;;;11.03;100.00
11621;BME280;5866;49.094;11.900;2023-05-14T01:59:46;96216.75;;;11.36;100.00
11621;BME280;5866;49.094;11.900;2023-05-14T02:02:14;96219.03;;;11.79;100.00
11621;BME280;5866;49.094;11.900;2023-05-14T02:04:41;96222.19;;;11.59;100.00
11621;BME280;5866;49.094;11.900;2023-05-14T02:07:09;96225.69;;;11.75;100.00
11621;BME280;5866;49.094;11.900;2023-05-14T02:09:36;96217.09;;;11.41;100.00
11621;BME280;5866;49.094;11.900;2023-05-14T02:12:07;96218.06;;;11.48;100.00
11621;BME280;5866;49.094;11.900;2023-05-14T02:14:36;96212.44;;;11.19;100.00
11621;BME280;5866;49.094;11.900;2023-05-14T02:17:04;96218.53;;;10.71;100.00
11621;BME280;5866;49.094;11.900;2023-05-14T02:19:32;96227.34;;;10.88;100.00
11621;BME280;5866;49.094;11.900;2023-05-14T02:21:59;96217.56;;;10.80;100.00
11621;BME280;5866;49.094;11.900;2023-05-14T02:24:27;96216.91;;;10.94;100.00
11621;BME280;5866;49.094;11.900;2023-05-14T02:26:54;96214.09;;;11.36;100.00
11621;BME280;5866;49.094;11.900;2023-05-14T02:29:23;96215.41;;;11.64;100.00
11621;BME280;5866;49.094;11.900;2023-05-14T02:31:51;96207.94;;;11.52;100.00
11621;BME280;5866;49.094;11.900;2023-05-14T02:34:18;96210.25;;;11.79;100.00
11621;BME280;5866;49.094;11.900;2023-05-14T02:36:46;96204.28;;;11.69;100.00
11621;BME280;5866;49.094;11.900;2023-05-14T02:39:14;96201.03;;;12.06;100.00
11621;BME280;5866;49.094;11.900;2023-05-14T02:41:41;96200.28;;;11.57;100.00
11621;BME280;5866;49.094;11.900;2023-05-14T02:44:09;96196.31;;;11.69;100.00
11621;BME280;5866;49.094;11.900;2023-05-14T02:46:37;96197.31;;;12.23;100.00
11621;BME280;5866;49.094;11.900;2023-05-14T02:49:05;96190.31;;;11.67;100.00
11621;BME280;5866;49.094;11.900;2023-05-14T02:51:33;96196.81;;;11.64;100.00
11621;BME280;5866;49.094;11.900;2023-05-14T02:54:00;96190.28;;;11.91;100.00
11621;BME280;5866;49.094;11.900;2023-05-14T02:56:28;96193.84;;;11.43;100.00
11621;BME280;5866;49.094;11.900;2023-05-14T02:58:55;96185.13;;;11.81;100.00
11621;BME280;5866;49.094;11.900;2023-05-14T03:01:23;96189.16;;;11.69;100.00
11621;BME280;5866;49.094;11.900;2023-05-14T03:03:53;96189.03;;;11.47;100.00
11621;BME280;5866;49.094;11.900;2023-05-14T03:06:20;96183.91;;;11.05;100.00
11621;BME280;5866;49.094;11.900;2023-05-14T03:08:47;96188.84;;;10.60;100.00
11621;BME280;5866;49.094;11.900;2023-05-14T03:11:15;96194.94;;;10.60;100.00
11621;BME280;5866;49.094;11.900;2023-05-14T03:13:42;96188.19;;;10.66;100.00
11621;BME280;5866;49.094;11.900;2023-05-14T03:16:10;96202.69;;;10.29;100.00
11621;BME280;5866;49.094;11.900;2023-05-14T03:18:37;96195.09;;;10.43;100.00
11621;BME280;5866;49.094;11.900;2023-05-14T03:21:06;96192.31;;;10.60;100.00
11621;BME280;5866;49.094;11.900;2023-05-14T03:23:34;96197.94;;;10.07;100.00
11621;BME280;5866;49.094;11.900;2023-05-14T03:26:02;96188.13;;;10.08;100.00
11621;BME280;5866;49.094;11.900;2023-05-14T03:28:30;96190.22;;;9.88;100.00
11621;BME280;5866;49.094;11.900;2023-05-14T03:30:57;96190.91;;;9.90;100.00
11621;BME280;5866;49.094;11.900;2023-05-14T03:33:25;96192.72;;;10.23;100.00
11621;BME280;5866;49.094;11.900;2023-05-14T03:35:52;96194.50;;;10.15;100.00
11621;BME280;5866;49.094;11.900;2023-05-14T03:38:21;96188.47;;;10.05;100.00
11621;BME280;5866;49.094;11.900;2023-05-14T03:40:49;96190.47;;;10.03;100.00
11621;BME280;5866;49.094;11.900;2023-05-14T03:43:16;96189.78;;;9.67;100.00
11621;BME280;5866;49.094;11.900;2023-05-14T03:45:44;96205.47;;;9.60;100.00
11621;BME280;5866;49.094;11.900;2023-05-14T03:48:11;96199.00;;;9.55;100.00
11621;BME280;5866;49.094;11.900;2023-05-14T03:50:39;96204.34;;;9.63;100.00
11621;BME280;5866;49.094;11.900;2023-05-14T03:53:07;96194.94;;;10.44;100.00
11621;BME280;5866;49.094;11.900;2023-05-14T03:55:36;96183.19;;;10.55;100.00
11621;BME280;5866;49.094;11.900;2023-05-14T03:58:03;96179.91;;;11.41;100.00
11621;BME280;5866;49.094;11.900;2023-05-14T04:00:32;96170.66;;;11.92;100.00
11621;BME280;5866;49.094;11.900;2023-05-14T04:03:00;96160.13;;;12.45;100.00
11621;BME280;5866;49.094;11.900;2023-05-14T04:05:27;96158.84;;;13.09;100.00
11621;BME280;5866;49.094;11.900;2023-05-14T04:07:55;96157.69;;;13.64;100.00
11621;BME280;5866;49.094;11.900;2023-05-14T04:10:23;96156.25;;;13.90;100.00
11621;BME280;5866;49.094;11.900;2023-05-14T04:12:52;96157.63;;;13.34;100.00
11621;BME280;5866;49.094;11.900;2023-05-14T04:15:21;96154.91;;;13.05;100.00
11621;BME280;5866;49.094;11.900;2023-05-14T04:17:48;96151.66;;;13.32;100.00
11621;BME280;5866;49.094;11.900;2023-05-14T04:20:16;96152.59;;;13.02;100.00
11621;BME280;5866;49.094;11.900;2023-05-14T04:22:43;96154.94;;;12.97;100.00
11621;BME280;5866;49.094;11.900;2023-05-14T04:25:11;96142.66;;;12.96;100.00
11621;BME280;5866;49.094;11.900;2023-05-14T04:27:38;96153.53;;;12.87;100.00
11621;BME280;5866;49.094;11.900;2023-05-14T04:30:09;96151.22;;;12.84;100.00
11621;BME280;5866;49.094;11.900;2023-05-14T04:32:36;96149.44;;;12.23;100.00
11621;BME280;5866;49.094;11.900;2023-05-14T04:35:05;96150.78;;;12.49;100.00
11621;BME280;5866;49.094;11.900;2023-05-14T04:37:32;96154.22;;;12.58;100.00
11621;BME280;5866;49.094;11.900;2023-05-14T04:40:00;96155.19;;;12.04;100.00
11621;BME280;5866;49.094;11.900;2023-05-14T04:42:28;96151.97;;;12.47;100.00
11621;BME280;5866;49.094;11.900;2023-05-14T04:44:55;96150.22;;;12.62;100.00
11621;BME280;5866;49.094;11.900;2023-05-14T04:47:25;96150.66;;;12.65;100.00
11621;BME280;5866;49.094;11.900;2023-05-14T04:49:52;96149.44;;;12.99;100.00
11621;BME280;5866;49.094;11.900;2023-05-14T04:52:20;96151.06;;;13.74;100.00
11621;BME280;5866;49.094;11.900;2023-05-14T04:54:47;96157.13;;;14.12;100.00
11621;BME280;5866;49.094;11.900;2023-05-14T04:57:15;96146.09;;;14.15;100.00
11621;BME280;5866;49.094;11.900;2023-05-14T04:59:42;96147.59;;;14.32;100.00
11621;BME280;5866;49.094;11.900;2023-05-14T05:02:10;96147.50;;;14.11;100.00
11621;BME280;5866;49.094;11.900;2023-05-14T05:04:39;96142.13;;;14.76;98.95
11621;BME280;5866;49.094;11.900;2023-05-14T05:07:06;96149.31;;;14.96;92.94
11621;BME280;5866;49.094;11.900;2023-05-14T05:09:34;96156.97;;;14.99;91.88
11621;BME280;5866;49.094;11.900;2023-05-14T05:12:01;96145.28;;;15.77;88.77
11621;BME280;5866;49.094;11.900;2023-05-14T05:14:29;96151.59;;;15.97;87.10
11621;BME280;5866;49.094;11.900;2023-05-14T05:16:56;96154.56;;;16.15;85.18
11621;BME280;5866;49.094;11.900;2023-05-14T05:19:24;96148.44;;;16.28;81.26
11621;BME280;5866;49.094;11.900;2023-05-14T05:22:09;96141.25;;;16.76;76.35
11621;BME280;5866;49.094;11.900;2023-05-14T05:24:37;96151.06;;;16.15;79.59
11621;BME280;5866;49.094;11.900;2023-05-14T05:27:04;96156.22;;;15.82;83.07
11621;BME280;5866;49.094;11.900;2023-05-14T05:29:33;96150.25;;;16.14;78.45
11621;BME280;5866;49.094;11.900;2023-05-14T05:32:00;96143.81;;;16.09;79.31
11621;BME280;5866;49.094;11.900;2023-05-14T05:34:28;96143.09;;;16.28;78.73
11621;BME280;5866;49.094;11.900;2023-05-14T05:36:56;96152.13;;;16.20;78.39
11621;BME280;5866;49.094;11.900;2023-05-14T05:39:25;96143.66;;;16.57;77.97
11621;BME280;5866;49.094;11.900;2023-05-14T05:41:52;96143.97;;;16.41;74.28
11621;BME280;5866;49.094;11.900;2023-05-14T05:44:20;96136.94;;;16.34;76.27
11621;BME280;5866;49.094;11.900;2023-05-14T05:46:47;96144.81;;;16.01;79.75
11621;BME280;5866;49.094;11.900;2023-05-14T05:49:16;96140.25;;;16.42;78.55
11621;BME280;5866;49.094;11.900;2023-05-14T05:51:43;96143.88;;;16.62;75.13
11621;BME280;5866;49.094;11.900;2023-05-14T05:54:11;96144.19;;;17.07;74.64
11621;BME280;5866;49.094;11.900;2023-05-14T05:56:40;96142.16;;;17.74;69.51
11621;BME280;5866;49.094;11.900;2023-05-14T05:59:07;96129.53;;;18.65;64.24
11621;BME280;5866;49.094;11.900;2023-05-14T06:01:35;96143.31;;;18.17;64.79
11621;BME280;5866;49.094;11.900;2023-05-14T06:04:02;96146.78;;;18.44;63.45
11621;BME280;5866;49.094;11.900;2023-05-14T06:06:31;96150.00;;;18.66;62.39
11621;BME280;5866;49.094;11.900;2023-05-14T06:08:59;96144.00;;;18.70;63.02
11621;BME280;5866;49.094;11.900;2023-05-14T06:11:27;96140.44;;;19.45;60.29
11621;BME280;5866;49.094;11.900;2023-05-14T06:13:56;96147.56;;;19.58;58.81
11621;BME280;5866;49.094;11.900;2023-05-14T06:16:23;96144.06;;;18.38;63.04
11621;BME280;5866;49.094;11.900;2023-05-14T06:18:51;96146.00;;;19.13;61.20
11621;BME280;5866;49.094;11.900;2023-05-14T06:21:19;96142.66;;;20.16;56.98
11621;BME280;5866;49.094;11.900;2023-05-14T06:23:47;96142.84;;;19.22;58.57
11621;BME280;5866;49.094;11.900;2023-05-14T06:26:14;96142.47;;;19.93;57.76
11621;BME280;5866;49.094;11.900;2023-05-14T06:28:42;96145.28;;;19.79;57.09
11621;BME280;5866;49.094;11.900;2023-05-14T06:31:10;96142.84;;;18.47;59.88
11621;BME280;5866;49.094;11.900;2023-05-14T06:33:38;96148.78;;;17.78;66.99
11621;BME280;5866;49.094;11.900;2023-05-14T06:36:06;96145.00;;;16.40;74.67
11621;BME280;5866;49.094;11.900;2023-05-14T06:38:34;96139.28;;;17.23;73.61
11621;BME280;5866;49.094;11.900;2023-05-14T06:41:02;96144.44;;;17.77;68.00
11621;BME280;5866;49.094;11.900;2023-05-14T06:43:29;96141.13;;;17.95;67.83
11621;BME280;5866;49.094;11.900;2023-05-14T06:45:57;96137.22;;;17.71;66.77
11621;BME280;5866;49.094;11.900;2023-05-14T06:48:26;96141.69;;;16.99;72.40
11621;BME280;5866;49.094;11.900;2023-05-14T06:50:54;96134.50;;;17.12;70.06
11621;BME280;5866;49.094;11.900;2023-05-14T06:53:22;96137.22;;;17.84;66.46
11621;BME280;5866;49.094;11.900;2023-05-14T06:55:49;96141.47;;;16.87;73.50
11621;BME280;5866;49.094;11.900;2023-05-14T06:58:17;96130.94;;;16.32;78.21
11621;BME280;5866;49.094;11.900;2023-05-14T07:00:44;96139.53;;;16.14;80.80
11621;BME280;5866;49.094;11.900;2023-05-14T07:03:12;96135.00;;;16.55;76.59
11621;BME280;5866;49.094;11.900;2023-05-14T07:05:41;96152.38;;;16.79;75.48
11621;BME280;5866;49.094;11.900;2023-05-14T07:08:10;96148.28;;;15.95;84.22
11621;BME280;5866;49.094;11.900;2023-05-14T07:10:37;96148.06;;;15.97;80.32
11621;BME280;5866;49.094;11.900;2023-05-14T07:13:05;96148.03;;;16.72;76.74
11621;BME280;5866;49.094;11.900;2023-05-14T07:15:32;96135.91;;;16.89;72.73
11621;BME280;5866;49.094;11.900;2023-05-14T07:18:00;96148.31;;;17.16;71.87
11621;BME280;5866;49.094;11.900;2023-05-14T07:20:27;96138.16;;;16.79;74.96
11621;BME280;5866;49.094;11.900;2023-05-14T07:22:56;96140.84;;;16.31;76.67
11621;BME280;5866;49.094;11.900;2023-05-14T07:25:23;96135.66;;;15.55;83.12
11621;BME280;5866;49.094;11.900;2023-05-14T07:27:51;96139.91;;;15.43;87.36
11621;BME280;5866;49.094;11.900;2023-05-14T07:30:19;96134.66;;;15.90;84.63
11621;BME280;5866;49.094;11.900;2023-05-14T07:32:47;96131.19;;;17.04;75.08
11621;BME280;5866;49.094;11.900;2023-05-14T07:35:14;96124.41;;;17.80;70.76
11621;BME280;5866;49.094;11.900;2023-05-14T07:37:42;96112.06;;;18.87;63.28
11621;BME280;5866;49.094;11.900;2023-05-14T07:40:11;96118.59;;;17.89;64.95
11621;BME280;5866;49.094;11.900;2023-05-14T07:42:39;96117.13;;;16.22;75.18
11621;BME280;5866;49.094;11.900;2023-05-14T07:45:07;96121.19;;;16.11;77.57
11621;BME280;5866;49.094;11.900;2023-05-14T07:47:35;96129.97;;;15.99;78.76
11621;BME280;5866;49.094;11.900;2023-05-14T07:50:04;96121.28;;;15.56;81.81
11621;BME280;5866;49.094;11.900;2023-05-14T07:52:31;96126.50;;;15.98;82.62
11621;BME280;5866;49.094;11.900;2023-05-14T07:54:59;96121.53;;;17.42;73.90
11621;BME280;5866;49.094;11.900;2023-05-14T07:57:28;96115.50;;;18.63;66.13
11621;BME280;5866;49.094;11.900;2023-05-14T07:59:55;96109.06;;;21.32;55.77
11621;BME280;5866;49.094;11.900;2023-05-14T08:02:23;96105.16;;;21.92;51.54
11621;BME280;5866;49.094;11.900;2023-05-14T08:04:51;96105.06;;;20.27;55.17
11621;BME280;5866;49.094;11.900;2023-05-14T08:07:18;96096.09;;;18.03;66.24
11621;BME280;5866;49.094;11.900;2023-05-14T08:09:46;96101.78;;;18.71;62.95
11621;BME280;5866;49.094;11.900;2023-05-14T08:12:14;96109.44;;;19.05;60.92
11621;BME280;5866;49.094;11.900;2023-05-14T08:14:43;96109.38;;;19.18;60.27
11621;BME280;5866;49.094;11.900;2023-05-14T08:17:11;96096.03;;;19.30;59.95
11621;BME280;5866;49.094;11.900;2023-05-14T08:19:39;96093.31;;;19.36;59.88
11621;BME280;5866;49.094;11.900;2023-05-14T08:22:06;96101.69;;;18.90;58.47
11621;BME280;5866;49.094;11.900;2023-05-14T08:24:34;96093.63;;;18.53;61.15
11621;BME280;5866;49.094;11.900;2023-05-14T08:27:01;96085.91;;;18.12;62.64
11621;BME280;5866;49.094;11.900;2023-05-14T08:29:29;96084.66;;;19.77;58.12
11621;BME280;5866;49.094;11.900;2023-05-14T08:31:58;96084.75;;;20.61;54.22
11621;BME280;5866;49.094;11.900;2023-05-14T08:34:37;96078.97;;;20.87;52.14
11621;BME280;5866;49.094;11.900;2023-05-14T08:37:04;96066.47;;;22.15;50.44
11621;BME280;5866;49.094;11.900;2023-05-14T08:39:32;96064.03;;;23.10;47.75
11621;BME280;5866;49.094;11.900;2023-05-14T08:42:00;96057.63;;;20.08;52.77
11621;BME280;5866;49.094;11.900;2023-05-14T08:44:32;96060.16;;;20.03;54.52
11621;BME280;5866;49.094;11.900;2023-05-14T08:47:04;96052.13;;;19.78;54.59
11621;BME280;5866;49.094;11.900;2023-05-14T08:49:38;96054.31;;;19.88;54.85
11621;BME280;5866;49.094;11.900;2023-05-14T08:52:07;96056.91;;;20.49;52.72
11621;BME280;5866;49.094;11.900;2023-05-14T08:54:35;96056.13;;;21.19;52.21
11621;BME280;5866;49.094;11.900;2023-05-14T08:57:03;96053.53;;;21.24;50.73
11621;BME280;5866;49.094;11.900;2023-05-14T08:59:31;96051.94;;;21.47;50.86
11621;BME280;5866;49.094;11.900;2023-05-14T09:02:01;96051.19;;;21.16;50.83
11621;BME280;5866;49.094;11.900;2023-05-14T09:04:31;96051.78;;;21.76;50.36
11621;BME280;5866;49.094;11.900;2023-05-14T09:07:01;96054.22;;;21.08;50.32
11621;BME280;5866;49.094;11.900;2023-05-14T09:09:29;96048.84;;;19.58;54.24
11621;BME280;5866;49.094;11.900;2023-05-14T09:11:57;96052.66;;;18.95;56.63
11621;BME280;5866;49.094;11.900;2023-05-14T09:14:24;96053.69;;;18.18;61.13
11621;BME280;5866;49.094;11.900;2023-05-14T09:16:52;96048.34;;;18.87;58.19
11621;BME280;5866;49.094;11.900;2023-05-14T09:19:21;96047.31;;;20.23;53.53
11621;BME280;5866;49.094;11.900;2023-05-14T09:21:50;96041.81;;;21.30;51.31
11621;BME280;5866;49.094;11.900;2023-05-14T09:24:18;96042.16;;;20.81;51.42
11621;BME280;5866;49.094;11.900;2023-05-14T09:26:49;96037.78;;;20.69;51.95
11621;BME280;5866;49.094;11.900;2023-05-14T09:29:16;96043.78;;;20.82;51.06
11621;BME280;5866;49.094;11.900;2023-05-14T09:31:44;96042.31;;;21.97;49.81
11621;BME280;5866;49.094;11.900;2023-05-14T09:34:22;96046.19;;;21.55;49.71
11621;BME280;5866;49.094;11.900;2023-05-14T09:36:55;96048.50;;;20.87;50.46
11621;BME280;5866;49.094;11.900;2023-05-14T09:39:23;96038.53;;;20.87;49.90
11621;BME280;5866;49.094;11.900;2023-05-14T09:41:51;96035.47;;;19.88;53.04
11621;BME280;5866;49.094;11.900;2023-05-14T09:44:19;96039.69;;;20.80;51.07
11621;BME280;5866;49.094;11.900;2023-05-14T09:46:47;96029.94;;;21.20;49.50
11621;BME280;5866;49.094;11.900;2023-05-14T09:49:15;96020.09;;;22.06;50.80
11621;BME280;5866;49.094;11.900;2023-05-14T09:51:43;96030.81;;;21.67;48.47
11621;BME280;5866;49.094;11.900;2023-05-14T09:54:12;96033.56;;;21.02;49.67
11621;BME280;5866;49.094;11.900;2023-05-14T09:56:39;96027.41;;;21.48;48.81
11621;BME280;5866;49.094;11.900;2023-05-14T09:59:07;96028.69;;;20.93;49.19
11621;BME280;5866;49.094;11.900;2023-05-14T10:01:35;96026.97;;;20.98;50.25
11621;BME280;5866;49.094;11.900;2023-05-14T10:04:06;96021.53;;;20.75;50.90
11621;BME280;5866;49.094;11.900;2023-05-14T10:06:36;96019.75;;;20.39;51.96
11621;BME280;5866;49.094;11.900;2023-05-14T10:09:09;96015.31;;;20.09;51.31
11621;BME280;5866;49.094;11.900;2023-05-14T10:11:41;96021.69;;;18.86;53.96
11621;BME280;5866;49.094;11.900;2023-05-14T10:14:13;96021.94;;;19.58;53.40
11621;BME280;5866;49.094;11.900;2023-05-14T10:16:46;96014.22;;;20.64;51.28
11621;BME280;5866;49.094;11.900;2023-05-14T10:19:16;96018.38;;;20.90;49.53
11621;BME280;5866;49.094;11.900;2023-05-14T10:21:47;96016.72;;;21.42;48.62
11621;BME280;5866;49.094;11.900;2023-05-14T10:24:16;96013.25;;;20.11;54.03
11621;BME280;5866;49.094;11.900;2023-05-14T10:26:46;96007.22;;;21.39;50.95
11621;BME280;5866;49.094;11.900;2023-05-14T10:29:14;96000.44;;;22.51;47.44
11621;BME280;5866;49.094;11.900;2023-05-14T10:31:46;96002.28;;;22.34;46.44
11621;BME280;5866;49.094;11.900;2023-05-14T10:34:31;95997.84;;;22.56;46.97
11621;BME280;5866;49.094;11.900;2023-05-14T10:36:59;95999.41;;;23.13;45.47
11621;BME280;5866;49.094;11.900;2023-05-14T10:39:45;96000.25;;;22.97;44.78
11621;BME280;5866;49.094;11.900;2023-05-14T10:42:17;95994.09;;;22.85;46.81
11621;BME280;5866;49.094;11.900;2023-05-14T10:44:50;95995.09;;;22.96;45.26
11621;BME280;5866;49.094;11.900;2023-05-14T10:47:18;95990.03;;;24.30;44.53
11621;BME280;5866;49.094;11.900;2023-05-14T10:49:47;95989.56;;;22.90;42.97
11621;BME280;5866;49.094;11.900;2023-05-14T10:52:16;95979.41;;;23.31;43.59
11621;BME280;5866;49.094;11.900;2023-05-14T10:54:51;95977.94;;;23.07;45.10
11621;BME280;5866;49.094;11.900;2023-05-14T10:57:21;95981.31;;;24.23;43.69
11621;BME280;5866;49.094;11.900;2023-05-14T10:59:51;95982.53;;;23.56;44.33
11621;BME280;5866;49.094;11.900;2023-05-14T11:02:22;95972.63;;;23.45;43.60
11621;BME280;5866;49.094;11.900;2023-05-14T11:04:59;95985.91;;;22.40;45.75
11621;BME280;5866;49.094;11.900;2023-05-14T11:07:30;95984.47;;;22.77;45.53
11621;BME280;5866;49.094;11.900;2023-05-14T11:10:00;95975.03;;;23.63;43.91
11621;BME280;5866;49.094;11.900;2023-05-14T11:12:30;95981.47;;;25.18;42.97
11621;BME280;5866;49.094;11.900;2023-05-14T11:14:59;95968.63;;;25.82;39.54
11621;BME280;5866;49.094;11.900;2023-05-14T11:17:30;95969.91;;;21.48;46.91
11621;BME280;5866;49.094;11.900;2023-05-14T11:19:58;95974.47;;;20.59;49.85
11621;BME280;5866;49.094;11.900;2023-05-14T11:22:26;95969.06;;;21.82;47.71
11621;BME280;5866;49.094;11.900;2023-05-14T11:24:53;95963.28;;;21.90;47.37
11621;BME280;5866;49.094;11.900;2023-05-14T11:27:22;95954.72;;;22.21;46.77
11621;BME280;5866;49.094;11.900;2023-05-14T11:29:51;95956.59;;;23.60;45.83
11621;BME280;5866;49.094;11.900;2023-05-14T11:32:21;95952.19;;;22.87;45.34
11621;BME280;5866;49.094;11.900;2023-05-14T11:34:48;95960.34;;;23.59;43.64
11621;BME280;5866;49.094;11.900;2023-05-14T11:37:16;95950.66;;;23.08;43.88
11621;BME280;5866;49.094;11.900;2023-05-14T11:39:48;95945.91;;;23.70;41.97
11621;BME280;5866;49.094;11.900;2023-05-14T11:42:16;95941.41;;;24.19;43.21
11621;BME280;5866;49.094;11.900;2023-05-14T11:44:45;95943.69;;;23.67;41.56
11621;BME280;5866;49.094;11.900;2023-05-14T11:47:16;95944.63;;;23.56;43.26
11621;BME280;5866;49.094;11.900;2023-05-14T11:49:44;95941.44;;;24.24;41.05
11621;BME280;5866;49.094;11.900;2023-05-14T11:52:13;95935.97;;;26.39;36.71
11621;BME280;5866;49.094;11.900;2023-05-14T11:54:41;95931.47;;;26.90;37.20
11621;BME280;5866;49.094;11.900;2023-05-14T11:57:10;95930.81;;;26.38;37.67
11621;BME280;5866;49.094;11.900;2023-05-14T11:59:39;95924.78;;;24.10;41.43
11621;BME280;5866;49.094;11.900;2023-05-14T12:02:09;95922.03;;;24.59;39.99
11621;BME280;5866;49.094;11.900;2023-05-14T12:04:38;95925.91;;;25.31;40.00
11621;BME280;5866;49.094;11.900;2023-05-14T12:07:08;95912.50;;;23.26;42.53
11621;BME280;5866;49.094;11.900;2023-05-14T12:09:39;95913.56;;;25.13;39.58
11621;BME280;5866;49.094;11.900;2023-05-14T12:12:11;95909.25;;;25.17;39.19
11621;BME280;5866;49.094;11.900;2023-05-14T12:14:39;95903.28;;;23.44;43.99
11621;BME280;5866;49.094;11.900;2023-05-14T12:17:12;95896.78;;;22.00;45.98
11621;BME280;5866;49.094;11.900;2023-05-14T12:19:43;95902.91;;;20.98;47.02
11621;BME280;5866;49.094;11.900;2023-05-14T12:22:13;95900.47;;;22.39;43.87
11621;BME280;5866;49.094;11.900;2023-05-14T12:24:42;95889.22;;;22.92;42.79
11621;BME280;5866;49.094;11.900;2023-05-14T12:27:09;95888.84;;;22.22;44.26
11621;BME280;5866;49.094;11.900;2023-05-14T12:29:38;95887.22;;;22.54;43.41
11621;BME280;5866;49.094;11.900;2023-05-14T12:32:07;95876.44;;;23.21;42.38
11621;BME280;5866;49.094;11.900;2023-05-14T12:34:35;95878.94;;;22.89;43.77
11621;BME280;5866;49.094;11.900;2023-05-14T12:37:04;95888.56;;;21.56;47.05
11621;BME280;5866;49.094;11.900;2023-05-14T12:39:33;95891.06;;;20.65;47.38
11621;BME280;5866;49.094;11.900;2023-05-14T12:42:01;95885.13;;;20.33;47.92
11621;BME280;5866;49.094;11.900;2023-05-14T12:44:28;95884.72;;;20.82;48.90
11621;BME280;5866;49.094;11.900;2023-05-14T12:46:56;95875.50;;;21.13;48.46
11621;BME280;5866;49.094;11.900;2023-05-14T12:49:24;95884.66;;;21.23;47.22
11621;BME280;5866;49.094;11.900;2023-05-14T12:51:51;95880.25;;;20.41;49.33
11621;BME280;5866;49.094;11.900;2023-05-14T12:54:40;95878.78;;;19.98;50.87
11621;BME280;5866;49.094;11.900;2023-05-14T12:57:08;95871.53;;;19.50;53.09
11621;BME280;5866;49.094;11.900;2023-05-14T12:59:36;95869.97;;;19.25;52.52
11621;BME280;5866;49.094;11.900;2023-05-14T13:02:03;95876.31;;;19.30;55.06
11621;BME280;5866;49.094;11.900;2023-05-14T13:04:31;95868.72;;;19.45;53.99